createdAt,value
2019-03-29T00:00:34.140Z,36.37
2019-03-29T00:03:04.112Z,30.70
2019-03-29T00:05:34.043Z,20.50
2019-03-29T00:08:04.073Z,24.53
2019-03-29T00:10:34.141Z,20.63
2019-03-29T00:13:04.141Z,13.50
2019-03-29T00:15:34.308Z,13.90
2019-03-29T00:18:04.313Z,13.50
2019-03-29T00:20:34.367Z,15.37
2019-03-29T00:23:04.355Z,12.07
2019-03-29T00:25:34.608Z,11.30
2019-03-29T00:28:04.529Z,10.73
2019-03-29T00:30:34.556Z,13.00
2019-03-29T00:33:04.463Z,12.53
2019-03-29T00:35:34.482Z,15.30
2019-03-29T00:38:04.382Z,14.90
2019-03-29T00:40:34.382Z,22.17
2019-03-29T00:43:04.383Z,19.70
2019-03-29T00:45:34.405Z,41.70
2019-03-29T00:48:04.323Z,32.67
2019-03-29T00:50:34.366Z,27.37
2019-03-29T00:53:04.297Z,24.00
2019-03-29T00:55:34.279Z,31.90
2019-03-29T00:58:04.278Z,34.47
2019-03-29T01:00:34.342Z,43.03
2019-03-29T01:03:04.259Z,33.20
2019-03-29T01:05:34.321Z,53.70
2019-03-29T01:08:08.336Z,48.23
2019-03-29T01:10:36.220Z,43.00
2019-03-29T01:13:06.241Z,40.37
2019-03-29T01:15:36.211Z,37.63
2019-03-29T01:18:06.125Z,47.57
2019-03-29T01:20:36.177Z,35.63
2019-03-29T01:23:06.159Z,46.53
2019-03-29T01:25:36.194Z,38.13
2019-03-29T01:28:06.123Z,44.07
2019-03-29T01:30:36.151Z,45.27
2019-03-29T01:33:06.167Z,60.17
2019-03-29T01:35:36.351Z,37.77
2019-03-29T01:38:06.361Z,19.70
2019-03-29T01:40:36.326Z,30.43
2019-03-29T01:43:06.252Z,40.43
2019-03-29T01:45:36.301Z,33.20
2019-03-29T01:48:06.305Z,32.63
2019-03-29T01:50:36.297Z,32.60
2019-03-29T01:53:06.233Z,21.97
2019-03-29T01:55:36.286Z,40.97
2019-03-29T01:58:06.212Z,55.57
2019-03-29T02:00:36.583Z,65.10
2019-03-29T02:03:06.681Z,69.40
2019-03-29T02:05:36.599Z,49.27
2019-03-29T02:08:06.585Z,42.60
2019-03-29T02:10:36.527Z,35.80
2019-03-29T02:13:06.482Z,42.97
2019-03-29T02:15:37.176Z,36.33
2019-03-29T02:18:08.111Z,68.53
2019-03-29T02:20:38.095Z,55.23
2019-03-29T02:23:08.063Z,83.30
2019-03-29T02:25:38.070Z,71.90
2019-03-29T02:28:08.057Z,69.67
2019-03-29T02:30:37.982Z,78.57
2019-03-29T02:33:08.007Z,27.93
2019-03-29T02:35:38.988Z,44.20
2019-03-29T02:38:08.950Z,22.20
2019-03-29T02:40:38.886Z,30.80
2019-03-29T02:43:10.644Z,39.83
2019-03-29T02:45:40.464Z,80.97
2019-03-29T02:48:10.540Z,92.57
2019-03-29T02:50:40.571Z,106.50
2019-03-29T02:53:10.549Z,102.97
2019-03-29T02:55:40.472Z,87.50
2019-03-29T02:58:10.526Z,76.50
2019-03-29T03:00:40.526Z,35.67
2019-03-29T03:03:10.507Z,49.13
2019-03-29T03:05:40.492Z,39.57
2019-03-29T03:08:10.565Z,40.90
2019-03-29T03:10:40.565Z,69.47
2019-03-29T03:13:10.553Z,116.67
2019-03-29T03:15:40.569Z,79.33
2019-03-29T03:18:10.601Z,76.43
2019-03-29T03:20:40.575Z,111.07
2019-03-29T03:23:10.563Z,77.80
2019-03-29T03:25:40.622Z,67.87
2019-03-29T03:28:10.555Z,44.27
2019-03-29T03:30:40.529Z,56.00
2019-03-29T03:33:10.527Z,49.13
2019-03-29T03:35:40.586Z,34.77
2019-03-29T03:38:10.603Z,55.00
2019-03-29T03:40:40.567Z,81.60
2019-03-29T03:43:10.568Z,38.03
2019-03-29T03:45:40.549Z,35.57
2019-03-29T03:48:10.499Z,34.30
2019-03-29T03:50:41.974Z,38.00
2019-03-29T03:53:12.416Z,74.07
2019-03-29T03:55:42.712Z,66.07
2019-03-29T03:58:13.457Z,39.10
2019-03-29T04:00:56.492Z,71.87
2019-03-29T04:03:26.799Z,118.07
2019-03-29T04:05:57.529Z,77.23
2019-03-29T04:08:27.667Z,71.33
2019-03-29T04:10:57.914Z,45.60
2019-03-29T04:13:28.041Z,35.77
2019-03-29T04:15:57.954Z,31.07
2019-03-29T04:18:27.954Z,44.47
2019-03-29T04:20:57.870Z,86.60
2019-03-29T04:23:27.918Z,99.60
2019-03-29T04:25:57.847Z,69.97
2019-03-29T04:28:27.862Z,126.90
2019-03-29T04:30:57.936Z,145.33
2019-03-29T04:33:27.872Z,108.47
2019-03-29T04:35:57.812Z,105.53
2019-03-29T04:38:27.850Z,88.17
2019-03-29T04:40:57.842Z,42.63
2019-03-29T04:43:27.846Z,117.63
2019-03-29T04:45:57.831Z,134.53
2019-03-29T04:48:27.764Z,57.87
2019-03-29T04:50:57.750Z,46.80
2019-03-29T04:53:27.681Z,44.43
2019-03-29T04:55:57.738Z,36.93
2019-03-29T04:58:27.781Z,44.67
2019-03-29T05:00:57.858Z,34.77
2019-03-29T05:03:27.781Z,88.03
2019-03-29T05:05:57.809Z,122.10
2019-03-29T05:08:28.065Z,95.50
2019-03-29T05:10:58.146Z,43.63
2019-03-29T05:13:28.743Z,33.27
2019-03-29T05:15:58.745Z,32.13
2019-03-29T05:18:28.763Z,46.90
2019-03-29T05:21:04.001Z,95.80
2019-03-29T05:23:33.925Z,79.03
2019-03-29T05:26:04.014Z,75.47
2019-03-29T05:28:33.927Z,86.87
2019-03-29T05:31:03.931Z,118.20
2019-03-29T05:33:35.052Z,133.77
2019-03-29T05:36:05.109Z,178.07
2019-03-29T05:38:35.137Z,135.17
2019-03-29T05:41:05.133Z,138.27
2019-03-29T05:43:35.133Z,124.60
2019-03-29T05:46:05.153Z,100.93
2019-03-29T05:48:35.165Z,94.70
2019-03-29T05:51:05.240Z,72.67
2019-03-29T05:53:35.234Z,84.00
2019-03-29T05:56:05.321Z,81.83
2019-03-29T05:58:35.273Z,85.55
2019-03-29T06:01:05.312Z,61.10
2019-03-29T06:03:36.326Z,70.17
2019-03-29T06:06:06.395Z,81.90
2019-03-29T06:08:36.348Z,89.23
2019-03-29T06:11:06.299Z,67.17
2019-03-29T06:13:36.363Z,90.70
2019-03-29T06:16:06.408Z,63.73
2019-03-29T06:18:36.423Z,84.30
2019-03-29T06:21:06.345Z,58.73
2019-03-29T06:23:36.413Z,62.75
2019-03-29T06:26:06.407Z,52.00
2019-03-29T06:28:36.463Z,38.28
2019-03-29T06:31:06.479Z,38.67
2019-03-29T06:33:36.455Z,64.15
2019-03-29T06:36:07.484Z,56.85
2019-03-29T06:38:37.971Z,58.85
2019-03-29T06:41:07.904Z,58.45
2019-03-29T06:43:37.963Z,38.08
2019-03-29T06:46:07.913Z,51.08
2019-03-29T06:48:37.853Z,33.25
2019-03-29T06:51:07.814Z,54.10
2019-03-29T06:53:37.781Z,49.53
2019-03-29T06:56:07.711Z,47.70
2019-03-29T06:58:37.660Z,54.45
2019-03-29T07:01:07.586Z,25.17
2019-03-29T07:03:37.589Z,30.02
2019-03-29T07:06:07.529Z,59.10
2019-03-29T07:08:37.514Z,44.08
2019-03-29T07:11:17.257Z,33.00
2019-03-29T07:13:39.115Z,38.85
2019-03-29T07:16:09.124Z,37.25
2019-03-29T07:18:39.212Z,37.70
2019-03-29T07:21:20.903Z,39.30
2019-03-29T07:23:40.747Z,41.73
2019-03-29T07:26:10.690Z,31.00
2019-03-29T07:28:40.673Z,29.30
2019-03-29T07:31:10.595Z,24.72
2019-03-29T07:33:40.664Z,23.02
2019-03-29T07:36:10.597Z,31.02
2019-03-29T07:38:40.645Z,21.57
2019-03-29T07:41:10.577Z,22.22
2019-03-29T07:43:40.619Z,28.80
2019-03-29T07:46:10.612Z,36.30
2019-03-29T07:48:40.622Z,25.30
2019-03-29T07:51:10.709Z,16.17
2019-03-29T07:53:40.723Z,19.70
2019-03-29T07:56:10.700Z,21.07
2019-03-29T07:58:40.657Z,19.23
2019-03-29T08:01:10.726Z,19.30
2019-03-29T08:03:40.648Z,13.55
2019-03-29T08:06:11.313Z,12.98
2019-03-29T08:08:41.941Z,12.33
2019-03-29T08:11:25.183Z,15.68
2019-03-29T08:13:43.528Z,13.78
2019-03-29T08:16:13.547Z,17.40
2019-03-29T08:18:43.483Z,12.13
2019-03-29T08:21:13.572Z,18.15
2019-03-29T08:23:43.571Z,15.58
2019-03-29T08:26:13.723Z,15.80
2019-03-29T08:28:43.660Z,16.45
2019-03-29T08:31:13.704Z,16.17
2019-03-29T08:33:43.690Z,11.10
2019-03-29T08:36:13.671Z,11.25
2019-03-29T08:38:43.601Z,9.18
2019-03-29T08:41:13.588Z,11.38
2019-03-29T08:43:43.575Z,10.65
2019-03-29T08:46:13.554Z,9.70
2019-03-29T08:48:43.489Z,9.25
2019-03-29T08:51:13.436Z,10.72
2019-03-29T08:53:43.395Z,9.38
2019-03-29T08:56:13.372Z,10.58
2019-03-29T08:58:46.374Z,10.63
2019-03-29T09:01:14.965Z,9.80
2019-03-29T09:03:44.997Z,9.70
2019-03-29T09:06:14.931Z,11.85
2019-03-29T09:08:44.989Z,10.05
2019-03-29T09:11:14.911Z,10.98
2019-03-29T09:13:44.843Z,14.63
2019-03-29T09:16:14.816Z,11.68
2019-03-29T09:18:44.824Z,7.65
2019-03-29T09:21:14.757Z,11.68
2019-03-29T09:23:44.815Z,10.35
2019-03-29T09:26:14.793Z,8.90
2019-03-29T09:28:44.764Z,6.95
2019-03-29T09:31:14.751Z,9.45
2019-03-29T09:33:44.828Z,7.97
2019-03-29T09:36:14.811Z,7.45
2019-03-29T09:38:44.811Z,5.53
2019-03-29T09:41:14.795Z,8.85
2019-03-29T09:43:44.817Z,8.90
2019-03-29T09:46:14.725Z,10.58
2019-03-29T09:48:44.775Z,6.45
2019-03-29T09:51:14.789Z,12.75
2019-03-29T09:53:44.771Z,8.48
2019-03-29T09:56:14.701Z,8.30
2019-03-29T09:58:45.169Z,22.70
2019-03-29T10:01:15.843Z,18.55
2019-03-29T10:03:45.901Z,6.45
2019-03-29T10:06:15.901Z,5.50
2019-03-29T10:08:45.985Z,5.67
2019-03-29T10:11:16.096Z,4.28
2019-03-29T10:13:46.159Z,18.10
2019-03-29T10:16:16.203Z,6.37
2019-03-29T10:18:46.222Z,5.30
2019-03-29T10:21:17.463Z,5.83
2019-03-29T10:23:47.717Z,5.97
2019-03-29T10:26:17.715Z,7.55
2019-03-29T10:28:47.711Z,8.35
2019-03-29T10:31:31.091Z,12.07
2019-03-29T10:33:49.510Z,12.28
2019-03-29T10:36:19.585Z,7.08
2019-03-29T10:38:49.550Z,3.67
2019-03-29T10:41:22.564Z,6.25
2019-03-29T10:43:51.080Z,9.45
2019-03-29T10:46:21.082Z,5.12
2019-03-29T10:48:51.065Z,6.80
2019-03-29T10:51:21.068Z,7.67
2019-03-29T10:53:51.025Z,6.65
2019-03-29T10:56:33.343Z,3.67
2019-03-29T10:58:52.585Z,3.87
2019-03-29T11:01:24.769Z,7.12
2019-03-29T11:03:54.153Z,6.30
2019-03-29T11:06:24.104Z,5.55
2019-03-29T11:08:54.098Z,5.33
2019-03-29T11:11:24.079Z,4.58
2019-03-29T11:13:56.701Z,3.33
2019-03-29T11:16:25.688Z,4.62
2019-03-29T11:18:55.646Z,4.50
2019-03-29T11:21:25.589Z,4.97
2019-03-29T11:23:55.552Z,7.67
2019-03-29T11:26:25.486Z,4.62
2019-03-29T11:28:55.427Z,6.72
2019-03-29T11:31:25.758Z,6.47
2019-03-29T11:33:55.690Z,8.20
2019-03-29T11:36:25.673Z,6.22
2019-03-29T11:38:55.599Z,8.55
2019-03-29T11:41:25.653Z,7.97
2019-03-29T11:43:55.665Z,7.72
2019-03-29T11:46:25.709Z,7.95
2019-03-29T11:48:55.653Z,11.10
2019-03-29T11:51:25.606Z,7.15
2019-03-29T11:53:55.567Z,7.03
2019-03-29T11:56:25.501Z,7.30
2019-03-29T11:58:55.456Z,11.15
2019-03-29T12:01:25.455Z,7.25
2019-03-29T12:03:55.489Z,9.23
2019-03-29T12:06:25.540Z,11.93
2019-03-29T12:08:57.219Z,3.62
2019-03-29T12:11:27.308Z,5.20
2019-03-29T12:13:57.307Z,7.62
2019-03-29T12:16:27.238Z,4.37
2019-03-29T12:18:57.191Z,7.50
2019-03-29T12:21:27.241Z,5.15
2019-03-29T12:23:57.156Z,4.35
2019-03-29T12:26:27.225Z,6.37
2019-03-29T12:28:57.211Z,8.83
2019-03-29T12:31:27.265Z,3.40
2019-03-29T12:33:57.188Z,6.55
2019-03-29T12:36:27.311Z,5.35
2019-03-29T12:38:57.263Z,4.17
2019-03-29T12:41:27.243Z,3.87
2019-03-29T12:43:57.177Z,4.03
2019-03-29T12:46:27.151Z,5.92
2019-03-29T12:48:57.152Z,6.80
2019-03-29T12:51:27.194Z,8.48
2019-03-29T12:53:57.198Z,3.75
2019-03-29T12:56:27.281Z,8.53
2019-03-29T12:58:57.393Z,4.42
2019-03-29T13:01:38.476Z,8.05
2019-03-29T13:03:59.484Z,3.58
2019-03-29T13:06:29.485Z,4.17
2019-03-29T13:08:59.519Z,6.80
2019-03-29T13:11:29.507Z,4.00
2019-03-29T13:14:10.190Z,5.25
2019-03-29T13:16:31.171Z,5.50
2019-03-29T13:19:01.179Z,3.25
2019-03-29T13:21:31.096Z,5.55
2019-03-29T13:24:01.137Z,5.90
2019-03-29T13:26:31.074Z,4.15
2019-03-29T13:29:01.115Z,4.42
2019-03-29T13:31:31.031Z,3.00
2019-03-29T13:34:01.085Z,7.85
2019-03-29T13:36:31.072Z,8.38
2019-03-29T13:39:01.121Z,7.30
2019-03-29T13:41:31.043Z,9.50
2019-03-29T13:44:01.029Z,4.03
2019-03-29T13:46:30.970Z,7.50
2019-03-29T13:49:00.975Z,4.60
2019-03-29T13:51:31.002Z,6.17
2019-03-29T13:54:00.923Z,3.00
2019-03-29T13:56:30.891Z,7.30
2019-03-29T13:59:01.059Z,11.78
2019-03-29T14:01:31.100Z,6.30
2019-03-29T14:04:01.107Z,3.37
2019-03-29T14:06:31.149Z,5.37
2019-03-29T14:09:01.150Z,4.60
2019-03-29T14:11:31.192Z,4.00
2019-03-29T14:14:01.140Z,6.72
2019-03-29T14:16:31.187Z,3.25
2019-03-29T14:19:01.207Z,5.35
2019-03-29T14:21:31.197Z,3.22
2019-03-29T14:24:01.131Z,7.50
2019-03-29T14:26:31.109Z,4.45
2019-03-29T14:29:01.121Z,6.45
2019-03-29T14:31:31.103Z,5.42
2019-03-29T14:34:01.106Z,5.60
2019-03-29T14:36:31.043Z,5.00
2019-03-29T14:39:00.973Z,7.60
2019-03-29T14:41:31.044Z,2.52
2019-03-29T14:44:01.061Z,2.92
2019-03-29T14:46:31.088Z,10.48
2019-03-29T14:49:01.097Z,5.65
2019-03-29T14:51:31.075Z,9.10
2019-03-29T14:54:00.996Z,16.07
2019-03-29T14:56:30.975Z,7.35
2019-03-29T14:59:00.977Z,4.97
2019-03-29T15:01:30.988Z,7.17
2019-03-29T15:04:00.941Z,7.15
2019-03-29T15:06:30.924Z,8.15
2019-03-29T15:09:05.134Z,4.78
2019-03-29T15:11:35.113Z,10.32
2019-03-29T15:14:05.167Z,8.23
2019-03-29T15:16:35.348Z,8.28
2019-03-29T15:19:05.298Z,7.45
2019-03-29T15:21:36.659Z,7.12
2019-03-29T15:24:06.813Z,8.93
2019-03-29T15:26:37.074Z,8.13
2019-03-29T15:29:07.136Z,8.63
2019-03-29T15:31:37.122Z,9.80
2019-03-29T15:34:07.161Z,18.87
2019-03-29T15:36:40.389Z,19.02
2019-03-29T15:39:10.523Z,13.38
2019-03-29T15:41:40.465Z,6.03
2019-03-29T15:44:10.529Z,5.22
2019-03-29T15:46:42.039Z,9.83
2019-03-29T15:49:12.277Z,21.82
2019-03-29T15:51:42.833Z,14.83
2019-03-29T15:54:12.913Z,12.73
2019-03-29T15:56:43.211Z,12.23
2019-03-29T15:59:13.460Z,14.53
2019-03-29T16:01:43.854Z,8.93
2019-03-29T16:04:14.245Z,10.25
2019-03-29T16:06:44.249Z,13.88
2019-03-29T16:09:14.317Z,9.88
2019-03-29T16:11:44.249Z,15.28
2019-03-29T16:14:15.045Z,10.40
2019-03-29T16:16:46.335Z,9.70
2019-03-29T16:19:16.468Z,14.90
2019-03-29T16:21:47.079Z,22.50
2019-03-29T16:24:17.073Z,5.45
2019-03-29T16:26:46.993Z,8.33
2019-03-29T16:29:16.973Z,6.67
2019-03-29T16:31:46.905Z,10.03
2019-03-29T16:34:16.933Z,9.73
2019-03-29T16:36:46.931Z,9.18
2019-03-29T16:39:17.864Z,15.95
2019-03-29T16:41:47.860Z,6.70
2019-03-29T16:44:19.698Z,13.15
2019-03-29T16:46:52.784Z,15.90
2019-03-29T16:49:23.357Z,11.95
2019-03-29T16:51:54.791Z,13.20
2019-03-29T16:54:24.852Z,11.68
2019-03-29T16:56:54.979Z,10.48
2019-03-29T16:59:27.995Z,11.10
2019-03-29T17:01:58.044Z,12.50
2019-03-29T17:04:28.038Z,8.20
2019-03-29T17:06:58.133Z,14.47
2019-03-29T17:09:28.187Z,18.87
2019-03-29T17:11:58.247Z,14.80
2019-03-29T17:14:28.181Z,15.18
2019-03-29T17:16:58.377Z,22.27
2019-03-29T17:19:29.810Z,37.88
2019-03-29T17:22:00.002Z,32.20
2019-03-29T17:24:30.024Z,17.23
2019-03-29T17:27:01.999Z,22.30
2019-03-29T17:29:32.086Z,26.10
2019-03-29T17:32:02.169Z,27.47
2019-03-29T17:34:32.119Z,33.23
2019-03-29T17:37:02.200Z,24.37
2019-03-29T17:39:32.199Z,19.25
2019-03-29T17:42:02.277Z,26.75
2019-03-29T17:44:32.289Z,20.82
2019-03-29T17:47:02.364Z,29.35
2019-03-29T17:49:32.417Z,23.03
2019-03-29T17:52:02.491Z,30.57
2019-03-29T17:54:32.527Z,23.80
2019-03-29T17:57:03.185Z,33.50
2019-03-29T17:59:33.187Z,24.93
2019-03-29T18:02:09.268Z,33.02
2019-03-29T18:04:34.846Z,31.87
2019-03-29T18:07:04.903Z,23.13
2019-03-29T18:09:34.940Z,35.21
2019-03-29T18:12:05.034Z,23.95
2019-03-29T18:14:35.026Z,16.73
2019-03-29T18:17:05.155Z,24.40
2019-03-29T18:19:35.225Z,26.27
2019-03-29T18:22:05.281Z,32.20
2019-03-29T18:24:35.327Z,34.53
2019-03-29T18:27:05.294Z,35.40
2019-03-29T18:29:35.365Z,33.20
2019-03-29T18:32:05.497Z,38.00
2019-03-29T18:34:37.682Z,36.57
2019-03-29T18:37:07.342Z,26.62
2019-03-29T18:39:37.695Z,43.45
2019-03-29T18:42:07.699Z,28.23
2019-03-29T18:44:37.768Z,31.50
2019-03-29T18:47:07.864Z,19.67
2019-03-29T18:49:37.926Z,25.15
2019-03-29T18:52:07.945Z,27.67
2019-03-29T18:54:37.995Z,19.60
2019-03-29T18:57:07.926Z,35.70
2019-03-29T18:59:37.972Z,29.93
2019-03-29T19:02:07.971Z,31.60
2019-03-29T19:04:39.085Z,24.10
2019-03-29T19:07:09.022Z,23.07
2019-03-29T19:09:40.413Z,24.03
2019-03-29T19:12:10.415Z,22.43
2019-03-29T19:14:41.727Z,20.90
2019-03-29T19:17:11.984Z,28.83
2019-03-29T19:19:42.045Z,24.37
2019-03-29T19:22:11.972Z,30.40
2019-03-29T19:24:42.045Z,37.53
2019-03-29T19:27:12.101Z,36.37
2019-03-29T19:29:42.062Z,53.77
2019-03-29T19:32:12.090Z,39.53
2019-03-29T19:34:42.179Z,30.00
2019-03-29T19:37:12.182Z,38.57
2019-03-29T19:39:42.270Z,31.10
2019-03-29T19:42:12.291Z,58.37
2019-03-29T19:44:42.317Z,47.93
2019-03-29T19:47:13.825Z,47.13
2019-03-29T19:49:44.082Z,52.77
2019-03-29T19:52:14.074Z,35.00
2019-03-29T19:54:44.177Z,31.47
2019-03-29T19:57:14.220Z,27.23
2019-03-29T19:59:47.862Z,22.40
2019-03-29T20:02:15.770Z,23.47
2019-03-29T20:04:45.819Z,23.20
2019-03-29T20:07:15.740Z,21.53
2019-03-29T20:09:45.819Z,20.17
2019-03-29T20:12:15.940Z,16.77
2019-03-29T20:14:45.992Z,36.37
2019-03-29T20:17:26.923Z,33.00
2019-03-29T20:19:48.021Z,22.33
2019-03-29T20:22:18.029Z,19.33
2019-03-29T20:24:48.301Z,19.53
2019-03-29T20:27:18.433Z,25.80
2019-03-29T20:29:48.510Z,26.43
2019-03-29T20:32:18.528Z,21.37
2019-03-29T20:34:48.530Z,43.47
2019-03-29T20:37:18.591Z,28.73
2019-03-29T20:39:48.622Z,24.57
2019-03-29T20:42:18.692Z,21.57
2019-03-29T20:44:48.679Z,38.07
2019-03-29T20:47:18.763Z,21.67
2019-03-29T20:49:48.753Z,23.97
2019-03-29T20:52:18.989Z,22.93
2019-03-29T20:54:49.280Z,30.73
2019-03-29T20:57:19.409Z,23.47
2019-03-29T20:59:49.395Z,20.77
2019-03-29T21:02:19.447Z,18.70
2019-03-29T21:04:49.367Z,29.10
2019-03-29T21:07:19.419Z,46.33
2019-03-29T21:09:49.359Z,50.13
2019-03-29T21:12:19.429Z,54.87
2019-03-29T21:14:49.375Z,56.00
2019-03-29T21:17:19.339Z,61.07
2019-03-29T21:19:49.369Z,46.17
2019-03-29T21:22:19.403Z,61.00
2019-03-29T21:24:49.396Z,48.17
2019-03-29T21:27:19.456Z,45.40
2019-03-29T21:29:49.490Z,57.07
2019-03-29T21:32:19.540Z,63.63
2019-03-29T21:34:49.638Z,56.87
2019-03-29T21:37:19.711Z,37.77
2019-03-29T21:39:49.840Z,59.33
2019-03-29T21:42:21.419Z,49.70
2019-03-29T21:44:51.586Z,64.13
2019-03-29T21:47:22.923Z,61.00
2019-03-29T21:49:53.111Z,56.50
2019-03-29T21:52:23.088Z,52.80
2019-03-29T21:54:53.046Z,43.57
2019-03-29T21:57:23.089Z,42.47
2019-03-29T21:59:53.034Z,43.53
2019-03-29T22:02:22.966Z,19.23
2019-03-29T22:04:52.965Z,26.43
2019-03-29T22:07:22.919Z,22.47
2019-03-29T22:09:52.852Z,26.70
2019-03-29T22:12:22.912Z,18.03
2019-03-29T22:14:52.853Z,15.43
2019-03-29T22:17:22.735Z,24.47
2019-03-29T22:19:52.792Z,22.90
2019-03-29T22:22:22.732Z,22.53
2019-03-29T22:24:52.744Z,19.40
2019-03-29T22:27:27.260Z,15.77
2019-03-29T22:29:57.546Z,17.23
2019-03-29T22:32:27.534Z,27.07
2019-03-29T22:34:57.516Z,23.13
2019-03-29T22:37:29.077Z,20.30
2019-03-29T22:40:00.570Z,22.43
2019-03-29T22:42:30.646Z,31.70
2019-03-29T22:45:00.697Z,42.00
2019-03-29T22:47:30.699Z,19.33
2019-03-29T22:50:00.759Z,23.07
2019-03-29T22:52:31.961Z,23.20
2019-03-29T22:55:04.341Z,19.50
2019-03-29T22:57:34.273Z,18.07
2019-03-29T23:00:09.739Z,19.20
2019-03-29T23:02:39.675Z,14.73
2019-03-29T23:05:09.817Z,23.13
2019-03-29T23:07:39.744Z,16.50
2019-03-29T23:10:09.975Z,20.90
2019-03-29T23:12:39.901Z,28.00
2019-03-29T23:15:09.943Z,30.47
2019-03-29T23:17:39.856Z,33.83
2019-03-29T23:20:09.878Z,70.67
2019-03-29T23:22:39.840Z,56.00
2019-03-29T23:25:09.825Z,39.47
2019-03-29T23:27:39.875Z,39.37
2019-03-29T23:30:10.109Z,47.03
2019-03-29T23:32:39.982Z,50.50
2019-03-29T23:35:09.907Z,64.23
2019-03-29T23:37:39.813Z,66.13
2019-03-29T23:40:10.249Z,78.93
2019-03-29T23:42:40.183Z,69.63
2019-03-29T23:45:10.170Z,69.43
2019-03-29T23:47:40.105Z,50.80
2019-03-29T23:50:10.052Z,41.43
2019-03-29T23:52:39.985Z,45.23
2019-03-29T23:55:10.034Z,35.90
2019-03-29T23:57:39.965Z,39.03
